sensor_id;sensor_type;location;lat;lon;timestamp;P1;durP1;ratioP1;P2;durP2;ratioP2
79454;SDS011;68900;52.134;5.420;2023-07-08T00:02:10;4.65;;;1.85;;
79454;SDS011;68900;52.134;5.420;2023-07-08T00:04:50;5.35;;;1.75;;
79454;SDS011;68900;52.134;5.420;2023-07-08T00:07:26;4.28;;;1.75;;
79454;SDS011;68900;52.134;5.420;2023-07-08T00:10:01;5.60;;;2.35;;
79454;SDS011;68900;52.134;5.420;2023-07-08T00:12:35;4.35;;;1.80;;
79454;SDS011;68900;52.134;5.420;2023-07-08T00:18:19;5.13;;;2.08;;
79454;SDS011;68900;52.134;5.420;2023-07-08T00:20:49;5.80;;;2.10;;
79454;SDS011;68900;52.134;5.420;2023-07-08T00:23:50;6.35;;;2.25;;
79454;SDS011;68900;52.134;5.420;2023-07-08T00:26:30;5.15;;;2.00;;
79454;SDS011;68900;52.134;5.420;2023-07-08T00:28:57;7.50;;;2.10;;
79454;SDS011;68900;52.134;5.420;2023-07-08T00:34:25;4.28;;;1.95;;
79454;SDS011;68900;52.134;5.420;2023-07-08T00:37:04;6.90;;;2.30;;
79454;SDS011;68900;52.134;5.420;2023-07-08T00:51:52;5.00;;;1.95;;
79454;SDS011;68900;52.134;5.420;2023-07-08T00:54:19;5.10;;;2.00;;
79454;SDS011;68900;52.134;5.420;2023-07-08T00:56:47;5.20;;;2.15;;
79454;SDS011;68900;52.134;5.420;2023-07-08T01:02:06;6.22;;;1.95;;
79454;SDS011;68900;52.134;5.420;2023-07-08T01:07:25;5.40;;;2.03;;
79454;SDS011;68900;52.134;5.420;2023-07-08T01:09:55;6.13;;;1.95;;
79454;SDS011;68900;52.134;5.420;2023-07-08T01:12:44;5.90;;;2.28;;
79454;SDS011;68900;52.134;5.420;2023-07-08T01:15:17;5.15;;;2.40;;
79454;SDS011;68900;52.134;5.420;2023-07-08T01:18:02;6.32;;;2.40;;
79454;SDS011;68900;52.134;5.420;2023-07-08T01:20:30;5.97;;;2.00;;
79454;SDS011;68900;52.134;5.420;2023-07-08T01:23:13;5.25;;;1.92;;
79454;SDS011;68900;52.134;5.420;2023-07-08T01:25:55;6.55;;;2.40;;
79454;SDS011;68900;52.134;5.420;2023-07-08T01:28:22;4.35;;;1.90;;
79454;SDS011;68900;52.134;5.420;2023-07-08T01:31:01;5.35;;;2.10;;
79454;SDS011;68900;52.134;5.420;2023-07-08T01:33:34;6.80;;;2.55;;
79454;SDS011;68900;52.134;5.420;2023-07-08T01:38:54;5.60;;;2.50;;
79454;SDS011;68900;52.134;5.420;2023-07-08T01:41:21;5.80;;;2.45;;
79454;SDS011;68900;52.134;5.420;2023-07-08T01:43:48;5.15;;;2.05;;
79454;SDS011;68900;52.134;5.420;2023-07-08T01:46:16;5.75;;;2.70;;
79454;SDS011;68900;52.134;5.420;2023-07-08T01:49:05;4.40;;;1.95;;
79454;SDS011;68900;52.134;5.420;2023-07-08T01:51:32;6.15;;;2.53;;
79454;SDS011;68900;52.134;5.420;2023-07-08T02:00:32;5.93;;;2.20;;
79454;SDS011;68900;52.134;5.420;2023-07-08T02:03:02;4.97;;;2.17;;
79454;SDS011;68900;52.134;5.420;2023-07-08T02:05:38;6.38;;;2.22;;
79454;SDS011;68900;52.134;5.420;2023-07-08T02:08:17;5.72;;;2.30;;
79454;SDS011;68900;52.134;5.420;2023-07-08T02:10:45;6.30;;;2.20;;
79454;SDS011;68900;52.134;5.420;2023-07-08T02:17:26;6.93;;;2.25;;
79454;SDS011;68900;52.134;5.420;2023-07-08T02:23:36;4.57;;;1.92;;
79454;SDS011;68900;52.134;5.420;2023-07-08T02:26:15;5.72;;;2.20;;
79454;SDS011;68900;52.134;5.420;2023-07-08T02:28:45;6.10;;;2.10;;
79454;SDS011;68900;52.134;5.420;2023-07-08T02:31:24;7.18;;;2.05;;
79454;SDS011;68900;52.134;5.420;2023-07-08T02:33:51;5.82;;;2.03;;
79454;SDS011;68900;52.134;5.420;2023-07-08T02:36:19;5.05;;;2.10;;
79454;SDS011;68900;52.134;5.420;2023-07-08T02:38:50;4.82;;;2.10;;
79454;SDS011;68900;52.134;5.420;2023-07-08T02:41:17;7.00;;;2.30;;
79454;SDS011;68900;52.134;5.420;2023-07-08T02:47:32;4.88;;;2.22;;
79454;SDS011;68900;52.134;5.420;2023-07-08T02:53:26;5.95;;;2.35;;
79454;SDS011;68900;52.134;5.420;2023-07-08T02:56:18;4.55;;;2.00;;
79454;SDS011;68900;52.134;5.420;2023-07-08T03:02:48;4.85;;;2.17;;
79454;SDS011;68900;52.134;5.420;2023-07-08T03:08:50;6.43;;;2.90;;
79454;SDS011;68900;52.134;5.420;2023-07-08T03:11:23;5.13;;;2.08;;
79454;SDS011;68900;52.134;5.420;2023-07-08T03:13:53;7.63;;;2.40;;
79454;SDS011;68900;52.134;5.420;2023-07-08T03:16:22;6.75;;;2.40;;
79454;SDS011;68900;52.134;5.420;2023-07-08T03:19:10;4.93;;;2.30;;
79454;SDS011;68900;52.134;5.420;2023-07-08T03:21:37;4.70;;;2.03;;
79454;SDS011;68900;52.134;5.420;2023-07-08T03:24:13;4.90;;;2.35;;
79454;SDS011;68900;52.134;5.420;2023-07-08T03:26:44;5.45;;;2.30;;
79454;SDS011;68900;52.134;5.420;2023-07-08T03:29:27;5.95;;;2.10;;
79454;SDS011;68900;52.134;5.420;2023-07-08T03:32:15;5.82;;;2.40;;
79454;SDS011;68900;52.134;5.420;2023-07-08T03:34:50;4.88;;;2.20;;
79454;SDS011;68900;52.134;5.420;2023-07-08T03:37:17;8.60;;;2.47;;
79454;SDS011;68900;52.134;5.420;2023-07-08T03:39:44;6.13;;;2.47;;
79454;SDS011;68900;52.134;5.420;2023-07-08T03:42:17;6.18;;;2.42;;
79454;SDS011;68900;52.134;5.420;2023-07-08T03:44:44;5.00;;;2.42;;
79454;SDS011;68900;52.134;5.420;2023-07-08T03:47:10;6.13;;;2.50;;
79454;SDS011;68900;52.134;5.420;2023-07-08T03:49:45;7.60;;;2.30;;
79454;SDS011;68900;52.134;5.420;2023-07-08T03:52:15;6.28;;;2.53;;
79454;SDS011;68900;52.134;5.420;2023-07-08T03:54:44;5.53;;;2.40;;
79454;SDS011;68900;52.134;5.420;2023-07-08T03:57:11;4.47;;;2.28;;
79454;SDS011;68900;52.134;5.420;2023-07-08T03:59:56;5.95;;;2.50;;
79454;SDS011;68900;52.134;5.420;2023-07-08T04:05:38;5.35;;;2.42;;
79454;SDS011;68900;52.134;5.420;2023-07-08T04:08:17;5.15;;;2.25;;
79454;SDS011;68900;52.134;5.420;2023-07-08T04:10:51;5.03;;;2.30;;
79454;SDS011;68900;52.134;5.420;2023-07-08T04:17:30;5.72;;;2.60;;
79454;SDS011;68900;52.134;5.420;2023-07-08T04:19:58;4.68;;;2.10;;
79454;SDS011;68900;52.134;5.420;2023-07-08T04:25:40;7.45;;;2.42;;
79454;SDS011;68900;52.134;5.420;2023-07-08T04:28:13;5.85;;;2.30;;
79454;SDS011;68900;52.134;5.420;2023-07-08T04:30:40;5.43;;;2.47;;
79454;SDS011;68900;52.134;5.420;2023-07-08T04:37:51;4.75;;;1.95;;
79454;SDS011;68900;52.134;5.420;2023-07-08T04:43:38;5.13;;;2.30;;
79454;SDS011;68900;52.134;5.420;2023-07-08T04:46:19;4.80;;;2.30;;
79454;SDS011;68900;52.134;5.420;2023-07-08T04:48:59;7.35;;;2.60;;
79454;SDS011;68900;52.134;5.420;2023-07-08T04:51:39;4.63;;;2.30;;
79454;SDS011;68900;52.134;5.420;2023-07-08T04:54:15;4.45;;;2.45;;
79454;SDS011;68900;52.134;5.420;2023-07-08T04:57:00;5.55;;;2.80;;
79454;SDS011;68900;52.134;5.420;2023-07-08T04:59:27;5.88;;;3.00;;
79454;SDS011;68900;52.134;5.420;2023-07-08T05:02:07;5.57;;;2.60;;
79454;SDS011;68900;52.134;5.420;2023-07-08T05:14:17;5.30;;;2.40;;
79454;SDS011;68900;52.134;5.420;2023-07-08T05:16:57;6.70;;;2.47;;
79454;SDS011;68900;52.134;5.420;2023-07-08T05:19:36;6.60;;;2.40;;
79454;SDS011;68900;52.134;5.420;2023-07-08T05:22:03;6.20;;;2.55;;
79454;SDS011;68900;52.134;5.420;2023-07-08T05:24:37;6.93;;;2.72;;
79454;SDS011;68900;52.134;5.420;2023-07-08T05:27:09;7.20;;;2.60;;
79454;SDS011;68900;52.134;5.420;2023-07-08T05:29:36;6.80;;;2.75;;
79454;SDS011;68900;52.134;5.420;2023-07-08T05:32:09;5.28;;;2.55;;
79454;SDS011;68900;52.134;5.420;2023-07-08T05:34:53;5.80;;;2.55;;
79454;SDS011;68900;52.134;5.420;2023-07-08T05:52:53;6.68;;;2.35;;
79454;SDS011;68900;52.134;5.420;2023-07-08T05:55:21;7.05;;;2.63;;
79454;SDS011;68900;52.134;5.420;2023-07-08T05:58:14;6.97;;;2.55;;
79454;SDS011;68900;52.134;5.420;2023-07-08T06:00:55;5.60;;;2.47;;
79454;SDS011;68900;52.134;5.420;2023-07-08T06:03:24;6.85;;;2.50;;
79454;SDS011;68900;52.134;5.420;2023-07-08T06:09:39;5.72;;;2.55;;
79454;SDS011;68900;52.134;5.420;2023-07-08T06:14:56;6.03;;;2.53;;
79454;SDS011;68900;52.134;5.420;2023-07-08T06:23:54;5.00;;;2.53;;
79454;SDS011;68900;52.134;5.420;2023-07-08T06:33:37;6.05;;;2.72;;
79454;SDS011;68900;52.134;5.420;2023-07-08T06:36:06;6.25;;;2.53;;
79454;SDS011;68900;52.134;5.420;2023-07-08T06:38:34;7.43;;;2.58;;
79454;SDS011;68900;52.134;5.420;2023-07-08T06:41:19;8.85;;;2.95;;
79454;SDS011;68900;52.134;5.420;2023-07-08T06:43:46;7.35;;;2.90;;
79454;SDS011;68900;52.134;5.420;2023-07-08T06:49:10;11.43;;;3.25;;
79454;SDS011;68900;52.134;5.420;2023-07-08T06:51:54;6.38;;;2.65;;
79454;SDS011;68900;52.134;5.420;2023-07-08T06:54:35;7.70;;;3.03;;
79454;SDS011;68900;52.134;5.420;2023-07-08T06:57:02;6.57;;;2.65;;
79454;SDS011;68900;52.134;5.420;2023-07-08T06:59:29;8.82;;;2.60;;
79454;SDS011;68900;52.134;5.420;2023-07-08T07:01:55;7.28;;;2.85;;
79454;SDS011;68900;52.134;5.420;2023-07-08T07:04:22;5.38;;;2.38;;
79454;SDS011;68900;52.134;5.420;2023-07-08T07:10:35;6.72;;;2.42;;
79454;SDS011;68900;52.134;5.420;2023-07-08T07:13:20;7.03;;;2.70;;
79454;SDS011;68900;52.134;5.420;2023-07-08T07:16:05;4.72;;;2.15;;
79454;SDS011;68900;52.134;5.420;2023-07-08T07:18:31;5.10;;;2.15;;
79454;SDS011;68900;52.134;5.420;2023-07-08T07:21:01;6.43;;;2.42;;
79454;SDS011;68900;52.134;5.420;2023-07-08T07:23:27;6.05;;;2.53;;
79454;SDS011;68900;52.134;5.420;2023-07-08T07:25:57;7.35;;;2.58;;
79454;SDS011;68900;52.134;5.420;2023-07-08T07:28:24;5.40;;;2.40;;
79454;SDS011;68900;52.134;5.420;2023-07-08T07:30:57;5.90;;;2.88;;
79454;SDS011;68900;52.134;5.420;2023-07-08T07:33:26;7.32;;;2.58;;
79454;SDS011;68900;52.134;5.420;2023-07-08T07:35:53;6.78;;;2.63;;
79454;SDS011;68900;52.134;5.420;2023-07-08T07:38:19;6.88;;;3.08;;
79454;SDS011;68900;52.134;5.420;2023-07-08T07:40:46;8.95;;;3.10;;
79454;SDS011;68900;52.134;5.420;2023-07-08T07:43:12;6.22;;;2.85;;
79454;SDS011;68900;52.134;5.420;2023-07-08T07:45:39;8.48;;;2.90;;
79454;SDS011;68900;52.134;5.420;2023-07-08T07:48:06;5.60;;;2.67;;
79454;SDS011;68900;52.134;5.420;2023-07-08T07:50:34;6.00;;;2.65;;
79454;SDS011;68900;52.134;5.420;2023-07-08T07:53:01;6.28;;;2.53;;
79454;SDS011;68900;52.134;5.420;2023-07-08T07:55:33;5.22;;;3.00;;
79454;SDS011;68900;52.134;5.420;2023-07-08T07:58:02;6.00;;;2.63;;
79454;SDS011;68900;52.134;5.420;2023-07-08T08:04:04;7.63;;;3.28;;
79454;SDS011;68900;52.134;5.420;2023-07-08T08:06:52;10.00;;;2.90;;
79454;SDS011;68900;52.134;5.420;2023-07-08T08:09:19;8.27;;;3.25;;
79454;SDS011;68900;52.134;5.420;2023-07-08T08:11:45;8.50;;;3.13;;
79454;SDS011;68900;52.134;5.420;2023-07-08T08:14:13;6.53;;;2.97;;
79454;SDS011;68900;52.134;5.420;2023-07-08T08:16:40;7.13;;;2.85;;
79454;SDS011;68900;52.134;5.420;2023-07-08T08:19:06;9.80;;;3.08;;
79454;SDS011;68900;52.134;5.420;2023-07-08T08:21:34;9.68;;;3.03;;
79454;SDS011;68900;52.134;5.420;2023-07-08T08:24:01;10.43;;;3.22;;
79454;SDS011;68900;52.134;5.420;2023-07-08T08:26:31;5.97;;;2.90;;
79454;SDS011;68900;52.134;5.420;2023-07-08T08:28:57;5.97;;;2.60;;
79454;SDS011;68900;52.134;5.420;2023-07-08T08:31:24;8.20;;;3.20;;
79454;SDS011;68900;52.134;5.420;2023-07-08T08:33:51;7.10;;;2.78;;
79454;SDS011;68900;52.134;5.420;2023-07-08T08:36:19;11.20;;;3.60;;
79454;SDS011;68900;52.134;5.420;2023-07-08T08:38:48;8.40;;;2.83;;
79454;SDS011;68900;52.134;5.420;2023-07-08T08:41:16;6.65;;;3.25;;
79454;SDS011;68900;52.134;5.420;2023-07-08T08:43:45;7.70;;;2.97;;
79454;SDS011;68900;52.134;5.420;2023-07-08T08:51:44;7.57;;;3.22;;
79454;SDS011;68900;52.134;5.420;2023-07-08T08:54:11;9.38;;;3.10;;
79454;SDS011;68900;52.134;5.420;2023-07-08T08:59:43;6.18;;;3.17;;
79454;SDS011;68900;52.134;5.420;2023-07-08T09:02:25;5.50;;;3.00;;
79454;SDS011;68900;52.134;5.420;2023-07-08T09:05:04;6.63;;;3.20;;
79454;SDS011;68900;52.134;5.420;2023-07-08T09:07:36;8.77;;;3.00;;
79454;SDS011;68900;52.134;5.420;2023-07-08T09:13:08;5.60;;;2.92;;
79454;SDS011;68900;52.134;5.420;2023-07-08T09:15:42;6.00;;;3.35;;
79454;SDS011;68900;52.134;5.420;2023-07-08T09:18:21;8.23;;;3.05;;
79454;SDS011;68900;52.134;5.420;2023-07-08T09:20:57;6.28;;;3.38;;
79454;SDS011;68900;52.134;5.420;2023-07-08T09:23:32;8.15;;;3.22;;
79454;SDS011;68900;52.134;5.420;2023-07-08T09:26:15;6.45;;;3.30;;
79454;SDS011;68900;52.134;5.420;2023-07-08T09:28:46;8.77;;;3.85;;
79454;SDS011;68900;52.134;5.420;2023-07-08T09:31:46;8.25;;;3.90;;
79454;SDS011;68900;52.134;5.420;2023-07-08T09:34:14;9.57;;;3.75;;
79454;SDS011;68900;52.134;5.420;2023-07-08T09:36:45;10.65;;;3.85;;
79454;SDS011;68900;52.134;5.420;2023-07-08T09:39:14;6.20;;;3.30;;
79454;SDS011;68900;52.134;5.420;2023-07-08T09:41:47;9.40;;;3.35;;
79454;SDS011;68900;52.134;5.420;2023-07-08T09:51:21;8.48;;;3.70;;
79454;SDS011;68900;52.134;5.420;2023-07-08T09:53:52;10.60;;;3.88;;
79454;SDS011;68900;52.134;5.420;2023-07-08T09:56:21;7.20;;;4.10;;
79454;SDS011;68900;52.134;5.420;2023-07-08T09:58:47;8.68;;;4.13;;
79454;SDS011;68900;52.134;5.420;2023-07-08T10:01:18;6.85;;;3.65;;
79454;SDS011;68900;52.134;5.420;2023-07-08T10:03:51;8.48;;;3.95;;
79454;SDS011;68900;52.134;5.420;2023-07-08T10:06:28;9.48;;;3.83;;
79454;SDS011;68900;52.134;5.420;2023-07-08T10:09:00;7.68;;;3.40;;
79454;SDS011;68900;52.134;5.420;2023-07-08T10:11:29;11.82;;;5.05;;
79454;SDS011;68900;52.134;5.420;2023-07-08T10:14:07;9.02;;;4.15;;
79454;SDS011;68900;52.134;5.420;2023-07-08T10:16:40;10.80;;;4.22;;
79454;SDS011;68900;52.134;5.420;2023-07-08T10:19:19;9.48;;;3.88;;
79454;SDS011;68900;52.134;5.420;2023-07-08T10:27:34;8.38;;;3.72;;
79454;SDS011;68900;52.134;5.420;2023-07-08T10:36:00;10.73;;;4.28;;
79454;SDS011;68900;52.134;5.420;2023-07-08T10:38:46;7.07;;;4.00;;
79454;SDS011;68900;52.134;5.420;2023-07-08T10:44:20;12.57;;;5.00;;
79454;SDS011;68900;52.134;5.420;2023-07-08T10:47:06;8.10;;;4.10;;
79454;SDS011;68900;52.134;5.420;2023-07-08T10:55:16;10.48;;;4.38;;
79454;SDS011;68900;52.134;5.420;2023-07-08T11:00:52;10.05;;;4.57;;
79454;SDS011;68900;52.134;5.420;2023-07-08T11:06:45;10.02;;;4.60;;
79454;SDS011;68900;52.134;5.420;2023-07-08T11:09:22;10.32;;;4.53;;
79454;SDS011;68900;52.134;5.420;2023-07-08T11:12:45;9.88;;;4.53;;
79454;SDS011;68900;52.134;5.420;2023-07-08T11:15:20;9.15;;;4.43;;
79454;SDS011;68900;52.134;5.420;2023-07-08T11:23:32;10.73;;;4.10;;
79454;SDS011;68900;52.134;5.420;2023-07-08T11:29:05;10.70;;;4.35;;
79454;SDS011;68900;52.134;5.420;2023-07-08T11:31:46;8.82;;;4.55;;
79454;SDS011;68900;52.134;5.420;2023-07-08T11:34:15;7.90;;;4.47;;
79454;SDS011;68900;52.134;5.420;2023-07-08T11:36:53;10.43;;;4.65;;
79454;SDS011;68900;52.134;5.420;2023-07-08T11:39:33;9.10;;;4.70;;
79454;SDS011;68900;52.134;5.420;2023-07-08T11:45:00;9.10;;;4.97;;
79454;SDS011;68900;52.134;5.420;2023-07-08T11:50:06;8.48;;;4.57;;
79454;SDS011;68900;52.134;5.420;2023-07-08T11:55:26;7.95;;;4.72;;
79454;SDS011;68900;52.134;5.420;2023-07-08T11:58:02;11.05;;;4.65;;
79454;SDS011;68900;52.134;5.420;2023-07-08T12:00:34;8.55;;;4.88;;
79454;SDS011;68900;52.134;5.420;2023-07-08T12:03:21;8.25;;;4.53;;
79454;SDS011;68900;52.134;5.420;2023-07-08T12:05:49;9.50;;;4.32;;
79454;SDS011;68900;52.134;5.420;2023-07-08T12:08:23;9.98;;;4.90;;
79454;SDS011;68900;52.134;5.420;2023-07-08T12:11:00;7.38;;;4.35;;
79454;SDS011;68900;52.134;5.420;2023-07-08T12:13:36;8.57;;;4.05;;
79454;SDS011;68900;52.134;5.420;2023-07-08T12:16:17;7.88;;;4.28;;
79454;SDS011;68900;52.134;5.420;2023-07-08T12:18:44;9.50;;;4.28;;
79454;SDS011;68900;52.134;5.420;2023-07-08T12:21:34;8.90;;;4.28;;
79454;SDS011;68900;52.134;5.420;2023-07-08T12:24:12;8.57;;;4.82;;
79454;SDS011;68900;52.134;5.420;2023-07-08T12:32:43;9.45;;;4.50;;
79454;SDS011;68900;52.134;5.420;2023-07-08T12:35:32;8.85;;;4.45;;
79454;SDS011;68900;52.134;5.420;2023-07-08T12:42:07;8.05;;;4.50;;
79454;SDS011;68900;52.134;5.420;2023-07-08T13:05:06;13.35;;;4.60;;
79454;SDS011;68900;52.134;5.420;2023-07-08T13:42:53;10.60;;;4.55;;
79454;SDS011;68900;52.134;5.420;2023-07-08T13:45:36;11.48;;;4.85;;
79454;SDS011;68900;52.134;5.420;2023-07-08T13:48:10;9.93;;;4.45;;
79454;SDS011;68900;52.134;5.420;2023-07-08T13:51:02;9.27;;;4.00;;
79454;SDS011;68900;52.134;5.420;2023-07-08T13:53:42;7.25;;;3.85;;
79454;SDS011;68900;52.134;5.420;2023-07-08T13:56:14;9.02;;;4.15;;
79454;SDS011;68900;52.134;5.420;2023-07-08T13:58:48;9.30;;;4.38;;
79454;SDS011;68900;52.134;5.420;2023-07-08T14:01:30;7.90;;;4.07;;
79454;SDS011;68900;52.134;5.420;2023-07-08T14:04:10;7.45;;;3.70;;
79454;SDS011;68900;52.134;5.420;2023-07-08T14:06:45;8.25;;;4.03;;
79454;SDS011;68900;52.134;5.420;2023-07-08T14:09:13;7.13;;;3.85;;
79454;SDS011;68900;52.134;5.420;2023-07-08T14:11:46;10.68;;;4.65;;
79454;SDS011;68900;52.134;5.420;2023-07-08T14:14:14;13.13;;;4.07;;
79454;SDS011;68900;52.134;5.420;2023-07-08T14:19:17;8.02;;;3.50;;
79454;SDS011;68900;52.134;5.420;2023-07-08T14:21:57;8.90;;;3.95;;
79454;SDS011;68900;52.134;5.420;2023-07-08T14:24:52;8.02;;;3.63;;
79454;SDS011;68900;52.134;5.420;2023-07-08T14:27:26;7.82;;;3.50;;
79454;SDS011;68900;52.134;5.420;2023-07-08T14:33:00;7.53;;;3.88;;
79454;SDS011;68900;52.134;5.420;2023-07-08T14:35:36;9.15;;;3.75;;
79454;SDS011;68900;52.134;5.420;2023-07-08T14:38:08;7.50;;;3.97;;
79454;SDS011;68900;52.134;5.420;2023-07-08T14:40:41;9.02;;;4.10;;
79454;SDS011;68900;52.134;5.420;2023-07-08T14:45:57;11.38;;;3.97;;
79454;SDS011;68900;52.134;5.420;2023-07-08T14:48:29;9.15;;;4.30;;
79454;SDS011;68900;52.134;5.420;2023-07-08T14:50:57;6.95;;;3.72;;
79454;SDS011;68900;52.134;5.420;2023-07-08T14:53:25;8.88;;;4.32;;
79454;SDS011;68900;52.134;5.420;2023-07-08T14:55:53;9.43;;;3.80;;
79454;SDS011;68900;52.134;5.420;2023-07-08T14:58:25;8.90;;;4.25;;
79454;SDS011;68900;52.134;5.420;2023-07-08T15:01:11;9.45;;;4.25;;
79454;SDS011;68900;52.134;5.420;2023-07-08T15:03:42;8.02;;;3.78;;
79454;SDS011;68900;52.134;5.420;2023-07-08T15:11:24;9.52;;;4.10;;
79454;SDS011;68900;52.134;5.420;2023-07-08T15:13:55;8.88;;;4.13;;
79454;SDS011;68900;52.134;5.420;2023-07-08T15:16:22;10.25;;;4.38;;
79454;SDS011;68900;52.134;5.420;2023-07-08T15:18:49;9.68;;;4.35;;
79454;SDS011;68900;52.134;5.420;2023-07-08T15:21:21;10.32;;;4.53;;
79454;SDS011;68900;52.134;5.420;2023-07-08T15:23:48;7.88;;;4.03;;
79454;SDS011;68900;52.134;5.420;2023-07-08T15:26:29;9.18;;;4.05;;
79454;SDS011;68900;52.134;5.420;2023-07-08T15:28:57;10.55;;;4.18;;
79454;SDS011;68900;52.134;5.420;2023-07-08T15:31:24;9.02;;;4.15;;
79454;SDS011;68900;52.134;5.420;2023-07-08T15:33:54;10.00;;;4.63;;
79454;SDS011;68900;52.134;5.420;2023-07-08T15:36:23;9.82;;;4.20;;
79454;SDS011;68900;52.134;5.420;2023-07-08T15:38:59;11.88;;;4.20;;
79454;SDS011;68900;52.134;5.420;2023-07-08T15:41:28;9.80;;;4.75;;
79454;SDS011;68900;52.134;5.420;2023-07-08T15:47:10;10.63;;;4.57;;
79454;SDS011;68900;52.134;5.420;2023-07-08T16:12:37;9.65;;;4.18;;
79454;SDS011;68900;52.134;5.420;2023-07-08T16:22:42;7.75;;;4.28;;
79454;SDS011;68900;52.134;5.420;2023-07-08T16:25:19;7.70;;;4.30;;
79454;SDS011;68900;52.134;5.420;2023-07-08T16:31:00;9.63;;;4.70;;
79454;SDS011;68900;52.134;5.420;2023-07-08T16:33:41;9.30;;;4.28;;
79454;SDS011;68900;52.134;5.420;2023-07-08T16:36:13;10.90;;;4.80;;
79454;SDS011;68900;52.134;5.420;2023-07-08T16:38:42;8.45;;;4.07;;
79454;SDS011;68900;52.134;5.420;2023-07-08T16:41:13;7.93;;;4.35;;
79454;SDS011;68900;52.134;5.420;2023-07-08T16:43:41;13.65;;;4.97;;
79454;SDS011;68900;52.134;5.420;2023-07-08T16:46:09;8.50;;;4.35;;
79454;SDS011;68900;52.134;5.420;2023-07-08T16:48:36;10.80;;;4.30;;
79454;SDS011;68900;52.134;5.420;2023-07-08T16:51:13;9.90;;;4.55;;
79454;SDS011;68900;52.134;5.420;2023-07-08T16:53:42;10.50;;;5.40;;
79454;SDS011;68900;52.134;5.420;2023-07-08T16:56:12;10.77;;;4.80;;
79454;SDS011;68900;52.134;5.420;2023-07-08T16:58:43;9.55;;;4.88;;
79454;SDS011;68900;52.134;5.420;2023-07-08T17:01:20;9.88;;;5.15;;
79454;SDS011;68900;52.134;5.420;2023-07-08T17:03:49;10.48;;;4.95;;
79454;SDS011;68900;52.134;5.420;2023-07-08T17:06:19;10.25;;;5.05;;
79454;SDS011;68900;52.134;5.420;2023-07-08T17:08:46;12.95;;;6.88;;
79454;SDS011;68900;52.134;5.420;2023-07-08T17:11:15;10.73;;;5.47;;
79454;SDS011;68900;52.134;5.420;2023-07-08T17:13:42;11.55;;;5.10;;
79454;SDS011;68900;52.134;5.420;2023-07-08T17:16:18;9.27;;;4.38;;
79454;SDS011;68900;52.134;5.420;2023-07-08T17:18:53;9.02;;;4.30;;
79454;SDS011;68900;52.134;5.420;2023-07-08T17:21:22;11.88;;;6.07;;
79454;SDS011;68900;52.134;5.420;2023-07-08T17:23:49;14.23;;;7.00;;
79454;SDS011;68900;52.134;5.420;2023-07-08T17:26:21;36.70;;;18.30;;
79454;SDS011;68900;52.134;5.420;2023-07-08T17:28:48;24.13;;;12.07;;
79454;SDS011;68900;52.134;5.420;2023-07-08T17:31:17;17.55;;;7.20;;
79454;SDS011;68900;52.134;5.420;2023-07-08T17:34:03;11.57;;;5.57;;
79454;SDS011;68900;52.134;5.420;2023-07-08T17:39:18;19.85;;;13.02;;
79454;SDS011;68900;52.134;5.420;2023-07-08T17:41:51;18.70;;;10.45;;
79454;SDS011;68900;52.134;5.420;2023-07-08T17:44:20;26.02;;;14.75;;
79454;SDS011;68900;52.134;5.420;2023-07-08T17:46:47;17.60;;;10.05;;
79454;SDS011;68900;52.134;5.420;2023-07-08T17:49:17;11.38;;;5.75;;
79454;SDS011;68900;52.134;5.420;2023-07-08T17:51:44;10.75;;;5.97;;
79454;SDS011;68900;52.134;5.420;2023-07-08T17:54:11;11.07;;;4.82;;
79454;SDS011;68900;52.134;5.420;2023-07-08T17:56:41;10.95;;;5.10;;
79454;SDS011;68900;52.134;5.420;2023-07-08T17:59:19;13.35;;;5.22;;
79454;SDS011;68900;52.134;5.420;2023-07-08T18:01:47;9.68;;;4.55;;
79454;SDS011;68900;52.134;5.420;2023-07-08T18:04:15;8.95;;;4.72;;
79454;SDS011;68900;52.134;5.420;2023-07-08T18:06:45;11.73;;;4.60;;
79454;SDS011;68900;52.134;5.420;2023-07-08T18:09:14;10.75;;;4.75;;
79454;SDS011;68900;52.134;5.420;2023-07-08T18:11:45;11.02;;;4.63;;
79454;SDS011;68900;52.134;5.420;2023-07-08T18:14:13;9.65;;;4.40;;
79454;SDS011;68900;52.134;5.420;2023-07-08T18:16:40;10.57;;;4.93;;
79454;SDS011;68900;52.134;5.420;2023-07-08T18:19:11;12.70;;;4.97;;
79454;SDS011;68900;52.134;5.420;2023-07-08T18:21:37;11.93;;;4.93;;
79454;SDS011;68900;52.134;5.420;2023-07-08T18:24:04;10.63;;;4.65;;
79454;SDS011;68900;52.134;5.420;2023-07-08T18:26:40;11.40;;;4.60;;
79454;SDS011;68900;52.134;5.420;2023-07-08T18:29:10;17.00;;;4.93;;
79454;SDS011;68900;52.134;5.420;2023-07-08T18:31:38;9.13;;;4.38;;
79454;SDS011;68900;52.134;5.420;2023-07-08T18:34:08;24.90;;;4.85;;
79454;SDS011;68900;52.134;5.420;2023-07-08T18:36:35;15.48;;;5.53;;
79454;SDS011;68900;52.134;5.420;2023-07-08T18:39:02;8.50;;;4.80;;
79454;SDS011;68900;52.134;5.420;2023-07-08T18:41:38;12.20;;;5.03;;
79454;SDS011;68900;52.134;5.420;2023-07-08T18:44:11;11.93;;;4.45;;
79454;SDS011;68900;52.134;5.420;2023-07-08T18:47:02;45.70;;;18.40;;
79454;SDS011;68900;52.134;5.420;2023-07-08T18:49:30;15.27;;;6.97;;
79454;SDS011;68900;52.134;5.420;2023-07-08T18:51:57;11.25;;;5.43;;
79454;SDS011;68900;52.134;5.420;2023-07-08T18:54:24;14.15;;;5.32;;
79454;SDS011;68900;52.134;5.420;2023-07-08T18:57:00;12.10;;;5.18;;
79454;SDS011;68900;52.134;5.420;2023-07-08T18:59:27;11.32;;;4.72;;
79454;SDS011;68900;52.134;5.420;2023-07-08T19:01:53;11.10;;;3.95;;
79454;SDS011;68900;52.134;5.420;2023-07-08T19:04:21;10.85;;;5.15;;
79454;SDS011;68900;52.134;5.420;2023-07-08T19:06:52;10.75;;;5.05;;
79454;SDS011;68900;52.134;5.420;2023-07-08T19:09:20;12.13;;;5.10;;
79454;SDS011;68900;52.134;5.420;2023-07-08T19:11:48;10.15;;;5.00;;
79454;SDS011;68900;52.134;5.420;2023-07-08T19:14:15;9.23;;;4.22;;
79454;SDS011;68900;52.134;5.420;2023-07-08T19:16:57;10.52;;;4.88;;
79454;SDS011;68900;52.134;5.420;2023-07-08T19:19:23;8.98;;;4.55;;
79454;SDS011;68900;52.134;5.420;2023-07-08T19:21:51;8.55;;;4.50;;
79454;SDS011;68900;52.134;5.420;2023-07-08T19:24:20;12.93;;;5.03;;
79454;SDS011;68900;52.134;5.420;2023-07-08T19:27:03;12.75;;;4.65;;
79454;SDS011;68900;52.134;5.420;2023-07-08T19:29:30;11.20;;;5.10;;
79454;SDS011;68900;52.134;5.420;2023-07-08T19:31:57;9.60;;;4.30;;
79454;SDS011;68900;52.134;5.420;2023-07-08T19:34:23;13.93;;;5.13;;
79454;SDS011;68900;52.134;5.420;2023-07-08T19:36:50;9.25;;;4.40;;
79454;SDS011;68900;52.134;5.420;2023-07-08T19:39:17;10.10;;;4.93;;
79454;SDS011;68900;52.134;5.420;2023-07-08T19:41:44;13.35;;;5.50;;
79454;SDS011;68900;52.134;5.420;2023-07-08T19:44:14;9.27;;;4.50;;
79454;SDS011;68900;52.134;5.420;2023-07-08T19:46:46;10.75;;;5.00;;
79454;SDS011;68900;52.134;5.420;2023-07-08T19:49:13;9.77;;;4.30;;
79454;SDS011;68900;52.134;5.420;2023-07-08T19:51:43;10.10;;;4.43;;
79454;SDS011;68900;52.134;5.420;2023-07-08T19:54:09;13.45;;;4.80;;
79454;SDS011;68900;52.134;5.420;2023-07-08T19:56:36;10.70;;;5.20;;
79454;SDS011;68900;52.134;5.420;2023-07-08T19:59:04;11.57;;;5.32;;
79454;SDS011;68900;52.134;5.420;2023-07-08T20:01:38;10.48;;;4.68;;
79454;SDS011;68900;52.134;5.420;2023-07-08T20:04:05;12.18;;;4.78;;
79454;SDS011;68900;52.134;5.420;2023-07-08T20:06:32;12.52;;;5.03;;
79454;SDS011;68900;52.134;5.420;2023-07-08T20:08:59;10.43;;;4.72;;
79454;SDS011;68900;52.134;5.420;2023-07-08T20:11:27;12.85;;;4.85;;
79454;SDS011;68900;52.134;5.420;2023-07-08T20:13:54;10.98;;;4.93;;
79454;SDS011;68900;52.134;5.420;2023-07-08T20:16:25;9.38;;;5.15;;
79454;SDS011;68900;52.134;5.420;2023-07-08T20:19:13;13.18;;;4.60;;
79454;SDS011;68900;52.134;5.420;2023-07-08T20:21:45;11.02;;;4.90;;
79454;SDS011;68900;52.134;5.420;2023-07-08T20:24:33;14.82;;;4.93;;
79454;SDS011;68900;52.134;5.420;2023-07-08T20:27:00;11.45;;;5.50;;